createdAt,value
2022-08-09T00:00:13.801Z,6.97
2022-08-09T00:02:42.918Z,7.57
2022-08-09T00:06:19.162Z,6.03
2022-08-09T00:08:12.998Z,5.00
2022-08-09T00:10:59.335Z,7.97
2022-08-09T00:13:26.423Z,6.07
2022-08-09T00:15:58.815Z,8.80
2022-08-09T00:18:27.014Z,9.67
2022-08-09T00:20:55.718Z,6.67
2022-08-09T00:23:55.199Z,6.00
2022-08-09T00:26:11.179Z,4.60
2022-08-09T00:28:38.980Z,6.50
2022-08-09T00:31:30.709Z,6.40
2022-08-09T00:33:54.813Z,8.23
2022-08-09T00:36:29.577Z,8.60
2022-08-09T00:38:58.046Z,7.00
2022-08-09T00:44:14.881Z,6.13
2022-08-09T00:44:20.635Z,7.30
2022-08-09T00:46:57.701Z,7.20
2022-08-09T00:49:31.782Z,9.17
2022-08-09T00:52:02.049Z,6.30
2022-08-09T00:54:36.236Z,7.50
2022-08-09T00:57:10.272Z,6.73
2022-08-09T00:59:46.670Z,7.97
2022-08-09T01:02:21.786Z,7.20
2022-08-09T01:05:13.968Z,8.77
2022-08-09T01:08:01.187Z,6.13
2022-08-09T01:10:39.391Z,6.80
2022-08-09T01:13:12.613Z,4.73
2022-08-09T01:15:52.150Z,6.80
2022-08-09T01:18:29.766Z,4.60
2022-08-09T01:21:41.182Z,5.23
2022-08-09T01:24:20.831Z,6.47
2022-08-09T01:26:52.767Z,8.97
2022-08-09T01:29:41.323Z,6.23
2022-08-09T01:32:32.698Z,9.30
2022-08-09T01:35:29.136Z,8.67
2022-08-09T01:38:09.273Z,8.83
2022-08-09T01:41:05.156Z,6.13
2022-08-09T01:43:41.949Z,7.27
2022-08-09T01:46:26.975Z,6.20
2022-08-09T01:48:59.923Z,5.03
2022-08-09T01:51:32.168Z,5.47
2022-08-09T01:54:04.174Z,6.83
2022-08-09T01:56:33.213Z,4.97
2022-08-09T01:59:05.755Z,5.23
2022-08-09T02:01:59.208Z,6.23
2022-08-09T02:04:25.487Z,6.30
2022-08-09T02:07:08.614Z,4.97
2022-08-09T02:09:59.491Z,6.37
2022-08-09T02:12:30.757Z,7.03
2022-08-09T02:15:00.624Z,5.63
2022-08-09T02:18:00.652Z,6.50
2022-08-09T02:20:26.562Z,5.90
2022-08-09T02:23:12.623Z,5.73
2022-08-09T02:25:52.635Z,6.93
2022-08-09T02:28:39.357Z,10.73
2022-08-09T02:31:25.879Z,6.53
2022-08-09T02:34:06.526Z,5.67
2022-08-09T02:36:43.496Z,6.20
2022-08-09T02:39:20.332Z,6.63
2022-08-09T02:42:05.750Z,6.60
2022-08-09T02:44:38.915Z,5.97
2022-08-09T02:47:11.855Z,5.63
2022-08-09T02:49:56.998Z,6.97
2022-08-09T02:52:55.291Z,6.23
2022-08-09T02:55:39.369Z,6.97
2022-08-09T02:58:32.604Z,8.07
2022-08-09T03:01:06.294Z,7.47
2022-08-09T03:04:18.239Z,6.27
2022-08-09T03:06:27.465Z,6.40
2022-08-09T03:08:55.934Z,7.67
2022-08-09T03:11:30.094Z,7.77
2022-08-09T03:14:13.452Z,6.40
2022-08-09T03:16:45.011Z,8.67
2022-08-09T03:19:14.294Z,8.17
2022-08-09T03:22:03.340Z,7.10
2022-08-09T03:24:42.817Z,7.80
2022-08-09T03:27:21.589Z,8.03
2022-08-09T03:29:57.958Z,8.47
2022-08-09T03:32:36.902Z,8.27
2022-08-09T03:35:14.796Z,10.23
2022-08-09T03:37:56.707Z,7.73
2022-08-09T03:40:25.598Z,5.93
2022-08-09T03:42:58.118Z,7.80
2022-08-09T03:46:03.912Z,6.97
2022-08-09T03:48:12.590Z,8.43
2022-08-09T03:50:46.777Z,10.17
2022-08-09T03:53:15.662Z,7.47
2022-08-09T03:55:43.134Z,8.60
2022-08-09T03:58:14.975Z,10.33
2022-08-09T04:00:45.547Z,9.33
2022-08-09T04:03:24.528Z,9.37
2022-08-09T04:06:00.758Z,8.60
2022-08-09T04:08:34.862Z,10.23
2022-08-09T04:11:02.772Z,7.50
2022-08-09T04:14:36.881Z,7.97
2022-08-09T04:16:20.720Z,6.47
2022-08-09T04:18:49.243Z,8.33
2022-08-09T04:21:19.219Z,6.77
2022-08-09T04:23:53.917Z,7.77
2022-08-09T04:26:23.214Z,8.17
2022-08-09T04:28:50.357Z,9.40
2022-08-09T04:31:17.749Z,9.63
2022-08-09T04:33:51.953Z,8.97
2022-08-09T04:36:24.524Z,9.17
2022-08-09T04:38:52.257Z,9.13
2022-08-09T04:41:24.018Z,8.43
2022-08-09T04:44:04.950Z,9.73
2022-08-09T04:46:37.958Z,8.13
2022-08-09T04:49:30.113Z,11.37
2022-08-09T04:52:18.357Z,8.43
2022-08-09T04:54:51.743Z,8.90
2022-08-09T04:57:21.586Z,8.13
2022-08-09T04:59:56.344Z,10.23
2022-08-09T05:02:27.496Z,8.97
2022-08-09T05:04:55.592Z,9.37
2022-08-09T05:07:23.644Z,7.77
2022-08-09T05:09:51.298Z,9.53
2022-08-09T05:12:18.584Z,11.67
2022-08-09T05:14:49.653Z,11.03
2022-08-09T05:18:39.039Z,8.53
2022-08-09T05:20:05.314Z,8.93
2022-08-09T05:22:35.047Z,10.73
2022-08-09T05:25:20.074Z,8.97
2022-08-09T05:27:48.502Z,9.90
2022-08-09T05:30:17.841Z,10.87
2022-08-09T05:32:51.033Z,10.83
2022-08-09T05:35:21.985Z,10.30
2022-08-09T05:37:50.830Z,9.93
2022-08-09T05:40:18.388Z,10.33
2022-08-09T05:42:45.599Z,11.23
2022-08-09T05:45:14.329Z,10.90
2022-08-09T05:47:51.628Z,10.53
2022-08-09T05:50:39.891Z,8.60
2022-08-09T05:53:21.578Z,11.73
2022-08-09T05:55:58.902Z,10.40
2022-08-09T05:58:25.749Z,11.60
2022-08-09T06:00:53.780Z,14.10
2022-08-09T06:03:21.163Z,11.93
2022-08-09T06:05:57.734Z,11.50
2022-08-09T06:08:33.405Z,9.90
2022-08-09T06:11:00.859Z,9.93
2022-08-09T06:13:33.847Z,12.57
2022-08-09T06:16:04.827Z,13.43
2022-08-09T06:18:33.476Z,10.60
2022-08-09T06:21:00.567Z,10.73
2022-08-09T06:23:57.809Z,10.47
2022-08-09T06:26:22.476Z,11.60
2022-08-09T06:28:59.880Z,11.23
2022-08-09T06:31:30.708Z,14.23
2022-08-09T06:33:58.521Z,12.63
2022-08-09T06:36:27.300Z,12.27
2022-08-09T06:38:56.941Z,13.00
2022-08-09T06:41:39.620Z,11.90
2022-08-09T06:44:14.348Z,11.20
2022-08-09T06:46:45.752Z,12.27
2022-08-09T06:49:12.811Z,13.80
2022-08-09T06:51:43.052Z,13.83
2022-08-09T06:54:14.979Z,11.53
2022-08-09T06:56:45.436Z,11.70
2022-08-09T07:00:50.101Z,12.13
2022-08-09T07:02:04.667Z,10.57
2022-08-09T07:04:34.887Z,11.87
2022-08-09T07:07:04.938Z,9.93
2022-08-09T07:09:54.874Z,14.67
2022-08-09T07:12:18.814Z,14.83
2022-08-09T07:14:51.188Z,10.20
2022-08-09T07:17:19.943Z,12.30
2022-08-09T07:19:48.072Z,12.63
2022-08-09T07:22:18.944Z,11.77
2022-08-09T07:25:01.637Z,9.40
2022-08-09T07:27:34.478Z,8.50
2022-08-09T07:30:13.445Z,6.90
2022-08-09T07:32:41.314Z,8.73
2022-08-09T07:35:11.881Z,6.97
2022-08-09T07:37:45.635Z,7.37
2022-08-09T07:40:18.586Z,6.87
2022-08-09T07:42:54.928Z,4.50
2022-08-09T07:45:39.787Z,8.60
2022-08-09T07:48:25.243Z,7.47
2022-08-09T07:51:09.987Z,4.93
2022-08-09T07:54:06.552Z,6.82
2022-08-09T07:56:31.412Z,4.63
2022-08-09T07:58:59.591Z,7.07
2022-08-09T08:01:33.108Z,4.07
2022-08-09T08:04:04.797Z,5.43
2022-08-09T08:06:37.549Z,5.00
2022-08-09T08:09:39.948Z,8.77
2022-08-09T08:12:27.929Z,6.32
2022-08-09T08:14:57.101Z,3.58
2022-08-09T08:17:54.106Z,2.33
2022-08-09T08:20:13.858Z,3.00
2022-08-09T08:22:41.967Z,3.00
2022-08-09T08:25:13.622Z,3.40
2022-08-09T08:27:42.883Z,4.85
2022-08-09T08:30:12.010Z,4.53
2022-08-09T08:32:52.896Z,3.08
2022-08-09T08:35:22.349Z,3.42
2022-08-09T08:37:59.642Z,5.15
2022-08-09T08:40:33.513Z,3.25
2022-08-09T08:43:03.437Z,4.07
2022-08-09T08:45:53.309Z,9.93
2022-08-09T08:48:32.323Z,3.72
2022-08-09T08:51:00.094Z,2.78
2022-08-09T08:53:32.218Z,3.20
2022-08-09T08:56:06.897Z,2.70
2022-08-09T08:58:36.075Z,1.45
2022-08-09T09:01:09.165Z,2.00
2022-08-09T09:03:50.423Z,3.08
2022-08-09T09:06:18.513Z,1.33
2022-08-09T09:08:52.333Z,1.70
2022-08-09T09:11:20.609Z,2.67
2022-08-09T09:13:56.642Z,3.70
2022-08-09T09:16:35.082Z,4.00
2022-08-09T09:19:36.917Z,2.05
2022-08-09T09:22:02.973Z,1.50
2022-08-09T09:24:43.890Z,2.47
2022-08-09T09:28:03.018Z,2.45
2022-08-09T09:30:26.167Z,3.40
2022-08-09T09:33:15.339Z,3.75
2022-08-09T09:36:01.637Z,1.90
2022-08-09T09:38:58.256Z,3.15
2022-08-09T09:41:33.025Z,1.58
2022-08-09T09:44:10.641Z,3.85
2022-08-09T09:46:46.014Z,1.52
2022-08-09T09:49:23.617Z,0.95
2022-08-09T09:52:33.401Z,1.27
2022-08-09T09:55:24.004Z,2.05
2022-08-09T09:58:18.335Z,2.08
2022-08-09T10:00:58.949Z,1.15
2022-08-09T10:03:56.354Z,1.65
2022-08-09T10:06:27.413Z,2.75
2022-08-09T10:09:02.959Z,1.25
2022-08-09T10:12:00.015Z,2.05
2022-08-09T10:14:33.069Z,1.15
2022-08-09T10:17:24.302Z,1.40
2022-08-09T10:19:58.865Z,2.40
2022-08-09T10:22:33.497Z,3.40
2022-08-09T10:25:07.022Z,1.42
2022-08-09T10:27:45.292Z,2.13
2022-08-09T10:33:29.563Z,2.90
2022-08-09T10:36:03.474Z,2.50
2022-08-09T10:38:54.855Z,1.85
2022-08-09T10:41:20.693Z,3.88
2022-08-09T10:43:58.556Z,0.85
2022-08-09T10:46:52.332Z,1.25
2022-08-09T10:49:49.949Z,0.98
2022-08-09T10:52:34.726Z,4.00
2022-08-09T10:55:24.111Z,0.80
2022-08-09T10:57:55.478Z,0.90
2022-08-09T11:00:34.588Z,1.52
2022-08-09T11:03:18.624Z,1.67
2022-08-09T11:06:15.901Z,1.58
2022-08-09T11:08:53.104Z,0.63
2022-08-09T11:11:23.051Z,3.78
2022-08-09T11:14:28.174Z,1.00
2022-08-09T11:16:57.647Z,3.33
2022-08-09T11:20:10.964Z,2.42
2022-08-09T11:22:47.222Z,1.00
2022-08-09T11:25:47.947Z,1.80
2022-08-09T11:28:38.681Z,0.40
2022-08-09T11:31:49.850Z,1.63
2022-08-09T11:34:43.224Z,1.83
2022-08-09T11:37:18.306Z,0.75
2022-08-09T11:40:04.327Z,1.13
2022-08-09T11:42:53.198Z,0.98
2022-08-09T11:45:42.561Z,1.25
2022-08-09T11:48:26.733Z,1.92
2022-08-09T11:52:49.558Z,1.05
2022-08-09T11:53:59.966Z,2.50
2022-08-09T11:56:42.619Z,0.60
2022-08-09T11:59:30.402Z,2.30
2022-08-09T12:02:34.039Z,0.77
2022-08-09T12:04:58.953Z,1.65
2022-08-09T12:07:41.702Z,1.45
2022-08-09T12:10:14.155Z,1.65
2022-08-09T12:12:59.039Z,0.85
2022-08-09T12:15:48.643Z,0.82
2022-08-09T12:18:26.227Z,2.50
2022-08-09T12:21:00.554Z,2.05
2022-08-09T12:23:56.394Z,0.38
2022-08-09T12:26:25.880Z,1.63
2022-08-09T12:29:10.433Z,1.00
2022-08-09T12:32:02.258Z,2.47
2022-08-09T12:34:40.515Z,1.65
2022-08-09T12:37:23.912Z,0.80
2022-08-09T12:40:09.005Z,3.03
2022-08-09T12:42:36.522Z,0.57
2022-08-09T12:45:07.122Z,3.25
2022-08-09T12:47:53.932Z,3.05
2022-08-09T12:50:24.875Z,1.55
2022-08-09T12:53:07.978Z,1.33
2022-08-09T12:56:14.242Z,1.27
2022-08-09T12:58:24.244Z,1.48
2022-08-09T13:00:55.582Z,1.33
2022-08-09T13:03:56.921Z,0.70
2022-08-09T13:06:34.638Z,1.27
2022-08-09T13:09:31.180Z,2.17
2022-08-09T13:12:06.374Z,1.63
2022-08-09T13:14:40.942Z,1.02
2022-08-09T13:17:44.274Z,2.63
2022-08-09T13:20:14.068Z,0.90
2022-08-09T13:23:01.804Z,3.15
2022-08-09T13:25:54.410Z,0.77
2022-08-09T13:28:34.684Z,2.15
2022-08-09T13:32:13.912Z,1.90
2022-08-09T13:33:54.477Z,2.35
2022-08-09T13:36:39.552Z,1.25
2022-08-09T13:41:51.667Z,2.60
2022-08-09T13:42:10.958Z,1.20
2022-08-09T13:44:42.050Z,1.40
2022-08-09T13:47:29.012Z,2.15
2022-08-09T13:50:12.703Z,1.05
2022-08-09T13:52:54.246Z,1.25
2022-08-09T13:55:21.209Z,3.90
2022-08-09T13:57:56.161Z,0.65
2022-08-09T14:00:28.490Z,1.00
2022-08-09T14:03:16.930Z,3.92
2022-08-09T14:06:00.432Z,1.10
2022-08-09T14:08:30.349Z,2.47
2022-08-09T14:10:57.259Z,1.50
2022-08-09T14:14:15.540Z,2.55
2022-08-09T14:16:15.158Z,1.70
2022-08-09T14:18:45.876Z,1.52
2022-08-09T14:21:22.580Z,1.45
2022-08-09T14:23:54.056Z,1.35
2022-08-09T14:26:31.826Z,1.75
2022-08-09T14:29:25.831Z,1.70
2022-08-09T14:31:54.948Z,1.02
2022-08-09T14:34:31.955Z,3.45
2022-08-09T14:37:01.640Z,0.93
2022-08-09T14:39:39.957Z,2.42
2022-08-09T14:42:30.260Z,1.33
2022-08-09T14:45:01.493Z,1.05
2022-08-09T14:47:56.856Z,1.00
2022-08-09T14:50:26.080Z,4.13
2022-08-09T14:52:53.928Z,0.77
2022-08-09T14:55:21.621Z,1.45
2022-08-09T14:57:49.421Z,1.45
2022-08-09T15:00:17.241Z,1.38
2022-08-09T15:02:47.468Z,1.15
2022-08-09T15:05:17.007Z,2.25
2022-08-09T15:07:45.495Z,1.15
2022-08-09T15:10:24.790Z,3.08
2022-08-09T15:12:53.372Z,0.73
2022-08-09T15:15:20.461Z,2.58
2022-08-09T15:17:52.576Z,1.98
2022-08-09T15:22:01.174Z,0.60
2022-08-09T15:24:03.579Z,0.93
2022-08-09T15:25:58.244Z,0.85
2022-08-09T15:28:27.747Z,1.40
2022-08-09T15:31:10.124Z,1.17
2022-08-09T15:34:17.440Z,1.20
2022-08-09T15:36:29.335Z,5.00
2022-08-09T15:38:58.988Z,4.82
2022-08-09T15:41:31.811Z,1.05
2022-08-09T15:44:02.088Z,1.30
2022-08-09T15:46:34.003Z,1.33
2022-08-09T15:49:21.657Z,0.63
2022-08-09T15:52:05.088Z,0.68
2022-08-09T15:54:52.245Z,1.38
2022-08-09T15:57:34.711Z,1.27
2022-08-09T16:00:32.144Z,1.17
2022-08-09T16:02:59.157Z,1.73
2022-08-09T16:05:53.050Z,1.65
2022-08-09T16:08:30.749Z,1.88
2022-08-09T16:11:02.358Z,1.63
2022-08-09T16:14:06.094Z,1.92
2022-08-09T16:16:18.976Z,1.08
2022-08-09T16:18:47.185Z,1.45
2022-08-09T16:21:17.066Z,0.88
2022-08-09T16:23:54.923Z,1.63
2022-08-09T16:26:34.629Z,1.88
2022-08-09T16:29:11.219Z,0.65
2022-08-09T16:32:18.708Z,3.92
2022-08-09T16:34:54.379Z,2.60
2022-08-09T16:37:17.775Z,0.65
2022-08-09T16:39:54.790Z,1.10
2022-08-09T16:42:31.567Z,3.08
2022-08-09T16:44:58.312Z,1.13
2022-08-09T16:48:39.961Z,0.45
2022-08-09T16:50:31.646Z,2.13
2022-08-09T16:53:05.851Z,1.00
2022-08-09T16:55:59.859Z,1.85
2022-08-09T16:58:21.085Z,1.63
2022-08-09T17:00:48.562Z,2.05
2022-08-09T17:03:21.671Z,1.00
2022-08-09T17:06:07.903Z,1.30
2022-08-09T17:08:44.724Z,2.65
2022-08-09T17:11:40.133Z,3.17
2022-08-09T17:14:25.467Z,1.15
2022-08-09T17:16:59.923Z,1.65
2022-08-09T17:19:46.554Z,1.88
2022-08-09T17:22:14.501Z,1.80
2022-08-09T17:24:47.901Z,3.92
2022-08-09T17:27:22.145Z,1.92
2022-08-09T17:29:50.619Z,0.65
2022-08-09T17:32:20.441Z,1.70
2022-08-09T17:35:00.962Z,1.00
2022-08-09T17:38:14.445Z,0.93
2022-08-09T17:40:21.573Z,0.40
2022-08-09T17:42:59.514Z,1.00
2022-08-09T17:45:45.516Z,2.58
2022-08-09T17:48:17.375Z,1.02
2022-08-09T17:50:56.433Z,3.00
2022-08-09T17:53:26.232Z,2.03
2022-08-09T17:55:57.623Z,4.28
2022-08-09T17:58:27.894Z,2.10
2022-08-09T18:00:58.282Z,1.23
2022-08-09T18:03:26.410Z,2.17
2022-08-09T18:05:57.288Z,2.85
2022-08-09T18:08:28.143Z,0.68
2022-08-09T18:11:02.379Z,1.13
2022-08-09T18:13:38.925Z,2.47
2022-08-09T18:16:30.421Z,2.05
2022-08-09T18:19:03.852Z,0.93
2022-08-09T18:21:50.210Z,1.02
2022-08-09T18:24:17.989Z,2.83
2022-08-09T18:26:46.637Z,1.90
2022-08-09T18:30:38.341Z,2.30
2022-08-09T18:32:05.463Z,1.17
2022-08-09T18:34:35.460Z,1.38
2022-08-09T18:37:10.176Z,3.60
2022-08-09T18:39:53.612Z,1.88
2022-08-09T18:42:21.185Z,1.15
2022-08-09T18:44:57.089Z,1.30
2022-08-09T18:47:37.364Z,1.02
2022-08-09T18:50:05.912Z,1.73
2022-08-09T18:52:35.127Z,1.63
2022-08-09T18:55:06.246Z,2.75
2022-08-09T18:57:43.530Z,1.15
2022-08-09T19:00:19.178Z,3.75
2022-08-09T19:02:48.611Z,2.03
2022-08-09T19:05:48.767Z,1.08
2022-08-09T19:08:10.149Z,1.73
2022-08-09T19:10:39.133Z,1.23
2022-08-09T19:13:19.764Z,3.00
2022-08-09T19:15:50.116Z,3.28
2022-08-09T19:18:35.048Z,1.90
2022-08-09T19:21:09.945Z,2.05
2022-08-09T19:24:35.416Z,3.17
2022-08-09T19:26:31.288Z,3.92
2022-08-09T19:29:09.389Z,1.27
2022-08-09T19:31:45.657Z,1.33
2022-08-09T19:34:21.582Z,1.35
2022-08-09T19:36:59.281Z,1.90
2022-08-09T19:39:43.478Z,2.20
2022-08-09T19:42:19.692Z,1.50
2022-08-09T19:44:51.464Z,2.17
2022-08-09T19:47:23.768Z,1.38
2022-08-09T19:50:09.218Z,1.90
2022-08-09T19:52:51.715Z,3.53
2022-08-09T19:55:30.786Z,1.42
2022-08-09T19:58:16.392Z,2.22
2022-08-09T20:00:45.629Z,12.70
2022-08-09T20:04:23.696Z,5.00
2022-08-09T20:05:59.830Z,1.42
2022-08-09T20:08:35.148Z,2.83
2022-08-09T20:11:04.118Z,3.30
2022-08-09T20:13:36.774Z,2.17
2022-08-09T20:16:33.819Z,3.43
2022-08-09T20:19:42.880Z,1.60
2022-08-09T20:21:57.002Z,1.90
2022-08-09T20:24:31.686Z,3.20
2022-08-09T20:27:02.368Z,3.03
2022-08-09T20:29:36.981Z,3.07
2022-08-09T20:32:31.225Z,1.70
2022-08-09T20:34:55.046Z,1.67
2022-08-09T20:37:23.278Z,1.57
2022-08-09T20:40:15.015Z,4.93
2022-08-09T20:42:38.016Z,1.73
2022-08-09T20:45:56.662Z,2.73
2022-08-09T20:47:53.283Z,2.07
2022-08-09T20:50:47.054Z,2.47
2022-08-09T20:53:18.601Z,3.27
2022-08-09T20:56:00.816Z,2.50
2022-08-09T20:58:32.512Z,1.20
2022-08-09T21:01:13.982Z,2.03
2022-08-09T21:05:48.461Z,2.17
2022-08-09T21:06:35.832Z,1.50
2022-08-09T21:09:03.338Z,1.90
2022-08-09T21:14:18.125Z,1.20
2022-08-09T21:16:45.621Z,1.10
2022-08-09T21:20:18.482Z,1.70
2022-08-09T21:22:00.177Z,2.37
2022-08-09T21:24:32.751Z,1.47
2022-08-09T21:27:10.447Z,1.67
2022-08-09T21:29:49.255Z,1.70
2022-08-09T21:32:18.739Z,1.53
2022-08-09T21:34:49.200Z,3.10
2022-08-09T21:37:17.978Z,1.80
2022-08-09T21:39:49.683Z,2.10
2022-08-09T21:42:17.386Z,1.43
2022-08-09T21:44:57.425Z,1.77
2022-08-09T21:47:27.400Z,4.07
2022-08-09T21:49:57.173Z,3.23
2022-08-09T21:52:24.128Z,1.70
2022-08-09T21:55:02.970Z,1.60
2022-08-09T21:57:38.611Z,1.97
2022-08-09T22:00:26.196Z,1.10
2022-08-09T22:02:58.093Z,2.53
2022-08-09T22:05:35.410Z,4.40
2022-08-09T22:08:06.263Z,2.40
2022-08-09T22:10:34.141Z,3.17
2022-08-09T22:13:07.470Z,2.53
2022-08-09T22:15:39.200Z,2.13
2022-08-09T22:18:08.296Z,1.50
2022-08-09T22:20:40.067Z,1.23
2022-08-09T22:23:10.582Z,2.27
2022-08-09T22:26:06.309Z,4.43
2022-08-09T22:28:32.407Z,1.50
2022-08-09T22:31:00.310Z,2.93
2022-08-09T22:33:37.447Z,2.83
2022-08-09T22:36:13.761Z,1.90
2022-08-09T22:38:46.488Z,6.33
2022-08-09T22:41:13.262Z,2.00
2022-08-09T22:44:01.665Z,3.10
2022-08-09T22:48:18.731Z,1.50
2022-08-09T22:49:14.074Z,2.67
2022-08-09T22:51:49.628Z,1.40
2022-08-09T22:54:23.586Z,2.67
2022-08-09T22:56:56.797Z,2.17
2022-08-09T22:59:56.774Z,2.40
2022-08-09T23:02:15.170Z,4.33
2022-08-09T23:04:53.990Z,2.63
2022-08-09T23:08:23.215Z,2.50
2022-08-09T23:10:27.959Z,1.57
2022-08-09T23:12:54.808Z,5.50
2022-08-09T23:15:21.694Z,1.47
2022-08-09T23:17:48.452Z,1.33
2022-08-09T23:20:15.343Z,2.10
2022-08-09T23:22:42.080Z,3.10
2022-08-09T23:25:09.350Z,2.17
2022-08-09T23:27:36.653Z,2.00
2022-08-09T23:30:23.380Z,2.47
2022-08-09T23:32:50.180Z,2.57
2022-08-09T23:35:17.193Z,3.10
2022-08-09T23:37:44.026Z,3.00
2022-08-09T23:40:11.414Z,2.10
2022-08-09T23:42:38.237Z,6.53
2022-08-09T23:45:08.844Z,1.93
2022-08-09T23:47:35.769Z,2.73
2022-08-09T23:50:02.569Z,2.00
2022-08-09T23:52:29.379Z,1.63
2022-08-09T23:54:57.695Z,2.23
2022-08-09T23:57:24.408Z,2.87
